Time;durP1;ratioP1;P1;durP2;ratioP2;P2;SDS_P1;SDS_P2;PMS_P1;PMS_P2;Temp;Humidity;BMP_temperature;BMP_pressure;BME280_temperature;BME280_humidity;BME280_pressure;Samples;Min_cycle;Max_cycle;Signal;HPM_P1;HPM_P2
2023/05/09 00:00:42;;;;;;;52.97;30.73;;;13.80;99.90;;;;;;5131742;27;20422;-70
2023/05/09 00:03:08;;;;;;;49.03;30.80;;;13.80;99.90;;;;;;5112987;27;21054;-69
2023/05/09 00:05:34;;;;;;;51.53;33.10;;;13.70;99.90;;;;;;5131532;27;20197;-70
2023/05/09 00:08:00;;;;;;;50.37;33.23;;;13.70;99.90;;;;;;5131462;27;20744;-69
2023/05/09 00:10:26;;;;;;;52.70;32.80;;;13.60;99.90;;;;;;5131637;27;20272;-70
2023/05/09 00:12:52;;;;;;;46.80;31.40;;;13.60;99.90;;;;;;5130958;27;20272;-70
2023/05/09 00:15:18;;;;;;;48.07;32.33;;;13.60;99.90;;;;;;5131184;27;20526;-70
2023/05/09 00:17:44;;;;;;;52.60;32.70;;;13.60;99.90;;;;;;5131275;27;20653;-70
2023/05/09 00:20:11;;;;;;;57.60;33.90;;;13.60;99.90;;;;;;5112692;27;20419;-70
2023/05/09 00:22:39;;;;;;;45.80;28.70;;;13.60;99.90;;;;;;5131922;27;20449;-71
2023/05/09 00:25:06;;;;;;;49.23;32.10;;;13.60;99.90;;;;;;5131240;27;20555;-69
2023/05/09 00:27:32;;;;;;;49.73;32.63;;;13.60;99.90;;;;;;5130988;27;20437;-70
2023/05/09 00:29:58;;;;;;;53.50;32.57;;;13.70;99.90;;;;;;5095692;27;20928;-70
2023/05/09 00:32:24;;;;;;;51.30;34.47;;;13.70;99.90;;;;;;5112648;27;20185;-69
2023/05/09 00:34:50;;;;;;;50.53;32.67;;;13.70;99.90;;;;;;5130995;27;20185;-69
2023/05/09 00:37:18;;;;;;;48.50;32.60;;;13.80;99.90;;;;;;5130950;27;20506;-69
2023/05/09 00:39:47;;;;;;;52.73;32.57;;;13.80;99.90;;;;;;5130882;27;20421;-70
2023/05/09 00:42:12;;;;;;;49.97;32.07;;;13.80;99.90;;;;;;5130706;27;20958;-70
2023/05/09 00:44:38;;;;;;;50.57;32.03;;;13.80;99.90;;;;;;5130668;27;20519;-70
2023/05/09 00:47:05;;;;;;;49.97;33.77;;;13.70;99.90;;;;;;5130464;27;20435;-70
2023/05/09 00:49:31;;;;;;;53.73;33.63;;;13.70;99.90;;;;;;5111724;27;20181;-70
2023/05/09 00:51:57;;;;;;;46.90;31.83;;;13.70;99.90;;;;;;5130350;27;20410;-69
2023/05/09 00:54:23;;;;;;;56.43;33.17;;;13.80;99.90;;;;;;5130344;27;20440;-69
2023/05/09 00:56:50;;;;;;;48.20;32.07;;;13.80;99.90;;;;;;5130121;27;21009;-69
2023/05/09 00:59:16;;;;;;;51.43;32.37;;;13.80;99.90;;;;;;5130414;27;20418;-69
2023/05/09 01:01:42;;;;;;;55.00;33.70;;;13.70;99.90;;;;;;5130085;27;20446;-69
2023/05/09 01:04:08;;;;;;;55.17;32.77;;;13.70;99.90;;;;;;5130264;27;20837;-70
2023/05/09 01:06:58;;;;;;;45.87;31.10;;;13.60;99.90;;;;;;5129947;27;20324;-69
2023/05/09 01:09:31;;;;;;;52.30;32.90;;;13.60;99.90;;;;;;5129856;27;20214;-69
2023/05/09 01:12:03;;;;;;;51.10;32.60;;;13.60;99.90;;;;;;5129812;27;20395;-70
2023/05/09 01:14:43;;;;;;;52.13;33.13;;;13.60;99.90;;;;;;5129816;27;20985;-70
2023/05/09 01:17:16;;;;;;;54.10;32.80;;;13.60;99.90;;;;;;5129838;27;20455;-70
2023/05/09 01:20:04;;;;;;;50.00;32.97;;;13.60;99.90;;;;;;5129744;27;20490;-69
2023/05/09 01:22:34;;;;;;;43.60;30.80;;;13.60;99.90;;;;;;5129674;27;20496;-70
2023/05/09 01:25:31;;;;;;;48.30;31.57;;;13.60;99.90;;;;;;5128886;27;20454;-70
2023/05/09 01:28:06;;;;;;;51.17;31.83;;;13.60;99.90;;;;;;5129992;27;20419;-70
2023/05/09 01:30:36;;;;;;;45.93;31.87;;;13.60;99.90;;;;;;5129861;27;20409;-70
2023/05/09 01:33:06;;;;;;;43.10;28.97;;;13.70;99.90;;;;;;5110726;27;20931;-70
2023/05/09 01:35:36;;;;;;;49.37;30.30;;;13.60;99.90;;;;;;5110806;27;20917;-70
2023/05/09 01:38:08;;;;;;;49.43;33.07;;;13.60;99.90;;;;;;5110955;28;20411;-70
2023/05/09 01:40:34;;;;;;;56.50;32.57;;;13.60;99.90;;;;;;5110823;28;20521;-70
2023/05/09 01:43:05;;;;;;;50.17;32.20;;;13.60;99.90;;;;;;5129401;27;20868;-69
2023/05/09 01:45:32;;;;;;;45.60;30.00;;;13.70;99.90;;;;;;5129437;27;21001;-70
2023/05/09 01:47:59;;;;;;;49.33;31.33;;;13.70;99.90;;;;;;5129523;27;20508;-69
2023/05/09 01:50:28;;;;;;;50.23;30.07;;;13.70;99.90;;;;;;5129764;27;20431;-70
2023/05/09 01:52:55;;;;;;;40.83;28.57;;;13.70;99.90;;;;;;5135290;27;20514;-70
2023/05/09 01:55:26;;;;;;;46.87;29.80;;;13.70;99.90;;;;;;5135249;27;20438;-69
2023/05/09 01:57:53;;;;;;;52.93;32.63;;;13.70;99.90;;;;;;5134945;27;20426;-70
2023/05/09 02:00:20;;;;;;;45.03;29.53;;;13.70;99.90;;;;;;5135429;28;20427;-69
2023/05/09 02:02:45;;;;;;;48.57;31.20;;;13.70;99.90;;;;;;5135659;28;20513;-70
2023/05/09 02:05:13;;;;;;;43.10;29.13;;;13.70;99.90;;;;;;5135461;27;20890;-70
2023/05/09 02:07:40;;;;;;;48.40;32.50;;;13.70;99.90;;;;;;5135139;28;20177;-70
2023/05/09 02:10:07;;;;;;;50.83;30.70;;;13.70;99.90;;;;;;5117008;28;20416;-70
2023/05/09 02:12:33;;;;;;;48.10;30.63;;;13.70;99.90;;;;;;5133119;28;20434;-70
2023/05/09 02:14:59;;;;;;;48.43;31.43;;;13.60;99.90;;;;;;5131524;27;20422;-70
2023/05/09 02:17:24;;;;;;;47.90;31.87;;;13.70;99.90;;;;;;5111212;28;20275;-70
2023/05/09 02:19:50;;;;;;;46.53;31.03;;;13.70;99.90;;;;;;5129770;28;20182;-69
2023/05/09 02:22:16;;;;;;;45.30;30.27;;;13.70;99.90;;;;;;5111270;28;20185;-69
2023/05/09 02:24:43;;;;;;;51.17;29.73;;;13.70;99.90;;;;;;5129578;27;20209;-69
2023/05/09 02:27:11;;;;;;;41.73;28.60;;;13.60;99.90;;;;;;5129680;27;20196;-70
2023/05/09 02:29:43;;;;;;;40.47;27.83;;;13.60;99.90;;;;;;5093936;28;20437;-70
2023/05/09 02:32:17;;;;;;;46.73;31.67;;;13.70;99.90;;;;;;5129516;28;20414;-69
2023/05/09 02:34:44;;;;;;;47.47;30.67;;;13.80;99.90;;;;;;5111135;27;20425;-69
2023/05/09 02:37:11;;;;;;;48.63;31.10;;;13.70;99.90;;;;;;5132245;27;20809;-70
2023/05/09 02:39:37;;;;;;;43.10;29.93;;;13.50;99.90;;;;;;5097964;27;20869;-69
2023/05/09 02:42:05;;;;;;;47.67;31.40;;;13.60;99.90;;;;;;5114931;27;20442;-69
2023/05/09 02:44:31;;;;;;;46.03;31.77;;;13.60;99.90;;;;;;5133274;27;20821;-70
2023/05/09 02:46:57;;;;;;;45.07;29.77;;;13.70;99.90;;;;;;5133285;27;20990;-70
2023/05/09 02:49:23;;;;;;;48.30;31.07;;;13.70;99.90;;;;;;5133184;27;20540;-69
2023/05/09 02:51:48;;;;;;;47.10;32.60;;;13.70;99.90;;;;;;5114482;27;20304;-69
2023/05/09 02:54:14;;;;;;;47.73;31.47;;;13.80;99.90;;;;;;5133273;27;20667;-69
2023/05/09 02:56:40;;;;;;;43.30;29.97;;;13.80;99.90;;;;;;5133179;27;20200;-70
2023/05/09 02:59:06;;;;;;;42.97;29.43;;;13.80;99.90;;;;;;5133327;27;20191;-69
2023/05/09 03:01:31;;;;;;;47.20;30.27;;;13.80;99.90;;;;;;5133181;27;20177;-70
2023/05/09 03:03:57;;;;;;;50.00;30.87;;;13.80;99.90;;;;;;5133136;27;20526;-69
2023/05/09 03:06:23;;;;;;;42.83;29.10;;;13.80;99.90;;;;;;5132762;27;20224;-70
2023/05/09 03:08:48;;;;;;;47.83;31.07;;;13.80;99.90;;;;;;5114459;27;20186;-70
2023/05/09 03:11:14;;;;;;;51.00;33.17;;;13.90;99.90;;;;;;5132524;27;20177;-70
2023/05/09 03:13:39;;;;;;;45.47;31.13;;;13.80;99.90;;;;;;5113899;27;20212;-70
2023/05/09 03:16:05;;;;;;;42.90;30.07;;;13.80;99.90;;;;;;5132306;27;20219;-69
2023/05/09 03:18:31;;;;;;;43.97;30.20;;;13.70;99.90;;;;;;5114037;27;20657;-69
2023/05/09 03:20:56;;;;;;;41.97;26.07;;;13.80;99.90;;;;;;5132390;27;20507;-69
2023/05/09 03:23:22;;;;;;;46.30;31.20;;;13.80;99.90;;;;;;5114064;27;20535;-71
2023/05/09 03:25:48;;;;;;;51.67;33.00;;;13.80;99.90;;;;;;5133123;27;20208;-70
2023/05/09 03:28:13;;;;;;;44.23;31.10;;;13.70;99.90;;;;;;5133037;27;20713;-70
2023/05/09 03:30:39;;;;;;;47.53;31.87;;;13.70;99.90;;;;;;5114238;27;20770;-69
2023/05/09 03:33:06;;;;;;;52.50;33.00;;;13.70;99.90;;;;;;5114974;27;20181;-69
2023/05/09 03:35:31;;;;;;;50.70;32.33;;;13.60;99.90;;;;;;5114677;27;20684;-70
2023/05/09 03:37:57;;;;;;;49.07;32.10;;;13.60;99.90;;;;;;5097614;27;20438;-70
2023/05/09 03:40:22;;;;;;;49.40;32.57;;;13.60;99.90;;;;;;5114767;27;20347;-69
2023/05/09 03:42:48;;;;;;;46.87;31.37;;;13.60;99.90;;;;;;5132550;27;20215;-69
2023/05/09 03:45:13;;;;;;;43.60;29.30;;;13.60;99.90;;;;;;5132673;27;20204;-69
2023/05/09 03:47:39;;;;;;;43.50;29.33;;;13.60;99.90;;;;;;5132057;27;20180;-69
2023/05/09 03:50:05;;;;;;;40.37;29.00;;;13.60;99.90;;;;;;5132802;27;20266;-69
2023/05/09 03:52:31;;;;;;;49.90;31.00;;;13.70;99.90;;;;;;5114361;27;20185;-69
2023/05/09 03:54:57;;;;;;;42.37;29.77;;;13.70;99.90;;;;;;5133252;27;21162;-70
2023/05/09 03:57:22;;;;;;;44.27;29.13;;;13.50;99.90;;;;;;5133370;27;20271;-69
2023/05/09 03:59:48;;;;;;;41.43;27.83;;;13.50;99.90;;;;;;5133474;27;20181;-70
2023/05/09 04:02:14;;;;;;;42.00;29.40;;;13.50;99.90;;;;;;5133194;27;20193;-70
2023/05/09 04:04:39;;;;;;;40.10;27.57;;;13.50;99.90;;;;;;5132644;27;20216;-70
2023/05/09 04:07:05;;;;;;;44.20;29.20;;;13.50;99.90;;;;;;5132218;27;20201;-71
2023/05/09 04:09:31;;;;;;;42.47;26.73;;;13.50;99.90;;;;;;5131811;27;20177;-71
2023/05/09 04:11:56;;;;;;;39.63;27.77;;;13.50;99.90;;;;;;5131747;27;20173;-70
2023/05/09 04:14:22;;;;;;;39.10;28.60;;;13.50;99.90;;;;;;5131540;27;20710;-70
2023/05/09 04:16:47;;;;;;;39.93;27.10;;;13.50;99.90;;;;;;5112803;27;20272;-69
2023/05/09 04:19:13;;;;;;;44.37;27.60;;;13.40;99.90;;;;;;5112859;27;20189;-69
2023/05/09 04:21:39;;;;;;;50.43;29.87;;;13.30;99.90;;;;;;5131244;27;20188;-69
2023/05/09 04:24:05;;;;;;;37.93;26.07;;;13.10;99.90;;;;;;5130988;27;20207;-70
2023/05/09 04:26:30;;;;;;;44.00;28.30;;;13.10;99.90;;;;;;5130926;27;20229;-70
2023/05/09 04:28:56;;;;;;;40.87;27.47;;;13.10;99.90;;;;;;5130998;27;20458;-69
2023/05/09 04:31:22;;;;;;;45.47;26.27;;;13.10;99.90;;;;;;5130990;27;20185;-70
2023/05/09 04:33:47;;;;;;;38.33;25.50;;;13.00;99.90;;;;;;5131097;27;20249;-70
2023/05/09 04:36:13;;;;;;;42.30;26.93;;;12.90;99.90;;;;;;5130735;27;20201;-70
2023/05/09 04:38:38;;;;;;;40.17;26.07;;;13.00;99.90;;;;;;5130808;27;20193;-69
2023/05/09 04:41:04;;;;;;;39.93;25.50;;;12.90;99.90;;;;;;5130512;27;20196;-69
2023/05/09 04:43:30;;;;;;;42.00;25.90;;;12.80;99.90;;;;;;5112149;27;20645;-69
2023/05/09 04:45:55;;;;;;;41.87;28.50;;;12.90;99.90;;;;;;5130634;27;20201;-69
2023/05/09 04:48:21;;;;;;;37.07;25.40;;;13.00;99.90;;;;;;5112401;27;20177;-70
2023/05/09 04:50:49;;;;;;;42.00;24.17;;;13.00;99.90;;;;;;5130582;27;20184;-67
2023/05/09 04:53:15;;;;;;;34.07;23.43;;;13.10;99.90;;;;;;5130932;27;20180;-70
2023/05/09 04:55:40;;;;;;;31.60;21.80;;;13.00;99.90;;;;;;5129505;27;20439;-70
2023/05/09 04:58:07;;;;;;;29.63;22.50;;;12.90;99.90;;;;;;5110811;27;20177;-69
2023/05/09 05:00:33;;;;;;;34.10;24.10;;;12.80;99.90;;;;;;5109933;27;20183;-69
2023/05/09 05:02:59;;;;;;;31.20;22.87;;;12.70;99.90;;;;;;5128686;27;20437;-70
2023/05/09 05:05:25;;;;;;;37.30;23.90;;;12.70;99.90;;;;;;5128563;27;20200;-69
2023/05/09 05:07:52;;;;;;;36.23;23.07;;;12.80;99.90;;;;;;5110197;27;20989;-69
2023/05/09 05:10:17;;;;;;;32.90;22.70;;;12.80;99.90;;;;;;5128649;27;20657;-69
2023/05/09 05:12:43;;;;;;;31.77;23.03;;;12.90;99.90;;;;;;5110029;27;20444;-69
2023/05/09 05:15:09;;;;;;;38.50;23.00;;;13.00;99.90;;;;;;5128325;27;20670;-69
2023/05/09 05:17:35;;;;;;;37.47;22.17;;;13.00;99.90;;;;;;5109939;27;20200;-68
2023/05/09 05:20:00;;;;;;;28.43;21.13;;;13.10;99.90;;;;;;5128749;27;20949;-68
2023/05/09 05:22:26;;;;;;;34.50;21.63;;;12.90;99.90;;;;;;5128948;27;20246;-70
2023/05/09 05:24:51;;;;;;;26.53;21.10;;;12.80;99.90;;;;;;5128640;27;20217;-69
2023/05/09 05:27:17;;;;;;;29.23;20.00;;;12.90;99.90;;;;;;5129302;27;20717;-69
2023/05/09 05:29:43;;;;;;;31.27;21.30;;;12.90;99.90;;;;;;5128883;27;20180;-70
2023/05/09 05:32:09;;;;;;;30.07;20.70;;;12.90;99.90;;;;;;5129140;27;20181;-70
2023/05/09 05:34:35;;;;;;;26.40;20.20;;;12.90;99.90;;;;;;5110551;27;20823;-69
2023/05/09 05:37:00;;;;;;;33.20;21.23;;;13.10;99.90;;;;;;5128560;27;20538;-69
2023/05/09 05:39:26;;;;;;;32.90;21.43;;;13.20;99.90;;;;;;5128520;27;20291;-69
2023/05/09 05:41:52;;;;;;;42.00;27.63;;;13.30;99.90;;;;;;5128151;27;20292;-69
2023/05/09 05:44:17;;;;;;;53.63;34.40;;;13.40;99.90;;;;;;5109203;27;20212;-70
2023/05/09 05:46:43;;;;;;;61.33;32.07;;;13.60;99.90;;;;;;5127944;27;21321;-69
2023/05/09 05:49:08;;;;;;;54.57;33.80;;;13.80;99.90;;;;;;5127956;27;20247;-70
2023/05/09 05:51:34;;;;;;;46.00;31.37;;;13.90;99.90;;;;;;5109347;28;20184;-70
2023/05/09 05:54:00;;;;;;;51.37;32.40;;;14.00;99.90;;;;;;5109491;28;20549;-70
2023/05/09 05:56:25;;;;;;;46.50;31.27;;;14.10;99.90;;;;;;5127900;27;20205;-69
2023/05/09 05:58:51;;;;;;;52.80;33.77;;;14.30;99.90;;;;;;5127971;27;20192;-69
2023/05/09 06:01:16;;;;;;;46.83;31.70;;;14.40;99.90;;;;;;5109405;28;20185;-68
2023/05/09 06:03:42;;;;;;;52.67;31.87;;;14.40;99.90;;;;;;5127689;28;20258;-69
2023/05/09 06:06:08;;;;;;;49.73;32.57;;;14.40;99.90;;;;;;5109154;28;20678;-69
2023/05/09 06:08:33;;;;;;;42.20;30.83;;;14.50;99.90;;;;;;5109183;28;20229;-69
2023/05/09 06:11:00;;;;;;;39.47;28.07;;;14.60;99.90;;;;;;5109969;27;20176;-70
2023/05/09 06:13:26;;;;;;;40.80;28.73;;;14.80;99.90;;;;;;5132024;27;20183;-70
2023/05/09 06:15:55;;;;;;;40.90;29.50;;;15.00;99.90;;;;;;5131829;27;20957;-69
2023/05/09 06:18:21;;;;;;;43.50;28.63;;;15.30;99.90;;;;;;5131893;27;20562;-69
2023/05/09 06:20:47;;;;;;;32.30;24.60;;;15.50;99.90;;;;;;5113096;27;20423;-69
2023/05/09 06:23:12;;;;;;;31.67;23.90;;;15.80;99.90;;;;;;5131867;27;20204;-69
2023/05/09 06:25:38;;;;;;;34.70;25.37;;;16.00;99.90;;;;;;5131629;27;20193;-70
2023/05/09 06:28:04;;;;;;;36.13;25.53;;;16.20;99.90;;;;;;5113037;27;20262;-70
2023/05/09 06:30:29;;;;;;;34.73;25.00;;;16.40;99.90;;;;;;5131803;27;20653;-69
2023/05/09 06:32:56;;;;;;;28.37;23.03;;;16.40;99.90;;;;;;5131418;27;20185;-70
2023/05/09 06:35:22;;;;;;;32.33;23.93;;;16.60;99.90;;;;;;5131346;27;20190;-69
2023/05/09 06:37:48;;;;;;;36.47;25.00;;;16.70;99.90;;;;;;5131491;27;20412;-69
2023/05/09 06:40:13;;;;;;;29.43;23.27;;;16.80;99.90;;;;;;5112673;27;20222;-69
2023/05/09 06:42:39;;;;;;;32.73;23.03;;;16.80;99.90;;;;;;5131507;27;20800;-69
2023/05/09 06:45:05;;;;;;;31.37;23.13;;;16.80;99.90;;;;;;5112764;27;20243;-70
2023/05/09 06:47:31;;;;;;;29.00;21.40;;;16.80;99.90;;;;;;5131652;27;20262;-69
2023/05/09 06:49:56;;;;;;;29.23;22.33;;;16.70;99.90;;;;;;5131156;27;20515;-69
2023/05/09 06:52:22;;;;;;;28.57;21.97;;;16.90;99.90;;;;;;5112666;27;20176;-69
2023/05/09 06:54:47;;;;;;;27.53;21.67;;;17.20;99.90;;;;;;5131013;27;20683;-69
2023/05/09 06:57:13;;;;;;;32.57;22.47;;;17.40;99.90;;;;;;5131278;27;20189;-69
2023/05/09 06:59:38;;;;;;;31.20;22.70;;;17.40;99.90;;;;;;5131248;27;20211;-69
2023/05/09 07:02:04;;;;;;;30.20;23.40;;;17.10;99.90;;;;;;5112665;27;20179;-69
2023/05/09 07:04:30;;;;;;;34.53;24.80;;;17.00;99.90;;;;;;5112379;27;20205;-68
2023/05/09 07:06:55;;;;;;;33.00;23.17;;;17.10;99.90;;;;;;5130766;27;20208;-68
2023/05/09 07:09:26;;;;;;;35.20;23.67;;;17.10;99.90;;;;;;5131221;27;20186;-68
2023/05/09 07:11:52;;;;;;;34.93;23.70;;;17.20;99.90;;;;;;5130829;27;21259;-68
2023/05/09 07:14:19;;;;;;;31.60;23.90;;;17.30;99.90;;;;;;5130851;27;20425;-70
2023/05/09 07:16:45;;;;;;;31.53;23.43;;;17.30;99.90;;;;;;5112376;27;20431;-70
2023/05/09 07:19:11;;;;;;;30.37;22.03;;;17.40;99.90;;;;;;5130810;27;20417;-69
2023/05/09 07:21:36;;;;;;;26.53;20.53;;;17.50;99.90;;;;;;5130596;27;20799;-69
2023/05/09 07:24:02;;;;;;;32.20;22.07;;;17.40;99.90;;;;;;5111071;27;20641;-70
2023/05/09 07:26:28;;;;;;;30.90;20.87;;;17.20;99.90;;;;;;5111913;27;20690;-69
2023/05/09 07:28:54;;;;;;;29.23;20.40;;;17.20;99.90;;;;;;5094966;27;20849;-70
2023/05/09 07:31:19;;;;;;;30.20;22.40;;;17.40;99.90;;;;;;5112088;27;20213;-69
2023/05/09 07:33:45;;;;;;;26.53;20.20;;;17.50;99.90;;;;;;5130261;27;20241;-69
2023/05/09 07:36:12;;;;;;;29.97;21.07;;;17.70;99.90;;;;;;5130164;27;20225;-68
2023/05/09 07:38:39;;;;;;;29.70;22.40;;;17.80;99.90;;;;;;5130485;27;20179;-68
2023/05/09 07:41:05;;;;;;;29.27;20.73;;;17.70;99.90;;;;;;5131173;27;20445;-68
2023/05/09 07:43:30;;;;;;;26.60;19.63;;;17.80;99.90;;;;;;5131342;27;20524;-70
2023/05/09 07:45:57;;;;;;;31.30;22.77;;;18.00;99.90;;;;;;5111771;27;20854;-69
2023/05/09 07:48:22;;;;;;;29.53;22.63;;;17.80;99.90;;;;;;5130384;27;20915;-68
2023/05/09 07:50:48;;;;;;;25.93;20.50;;;17.90;99.90;;;;;;5130185;27;20408;-68
2023/05/09 07:53:13;;;;;;;28.47;21.50;;;18.00;99.90;;;;;;5112432;27;20181;-69
2023/05/09 07:55:39;;;;;;;31.93;23.67;;;17.90;99.90;;;;;;5111918;27;20230;-69
2023/05/09 07:58:05;;;;;;;39.83;25.10;;;17.80;99.90;;;;;;5111421;27;20664;-69
2023/05/09 08:00:30;;;;;;;36.57;23.80;;;17.50;99.90;;;;;;5111660;27;20576;-69
2023/05/09 08:02:56;;;;;;;35.40;23.93;;;17.50;99.90;;;;;;5130151;27;20594;-69
2023/05/09 08:05:22;;;;;;;33.43;23.43;;;17.80;99.90;;;;;;5129901;27;20220;-69
2023/05/09 08:07:47;;;;;;;33.40;23.07;;;18.00;99.90;;;;;;5130141;27;20604;-69
2023/05/09 08:10:13;;;;;;;30.77;22.47;;;18.40;99.90;;;;;;5129838;27;20627;-69
2023/05/09 08:12:39;;;;;;;26.57;19.37;;;18.20;99.90;;;;;;5111296;27;20677;-70
2023/05/09 08:15:05;;;;;;;28.57;21.63;;;18.40;99.90;;;;;;5130155;27;20283;-69
2023/05/09 08:17:30;;;;;;;31.27;22.13;;;18.60;99.90;;;;;;5130068;27;20195;-69
2023/05/09 08:19:56;;;;;;;32.00;22.17;;;18.40;99.90;;;;;;5094217;27;20791;-69
2023/05/09 08:22:22;;;;;;;29.80;22.10;;;18.50;99.90;;;;;;5111506;27;20275;-69
2023/05/09 08:24:47;;;;;;;29.30;20.43;;;18.20;99.90;;;;;;5129978;27;20269;-69
2023/05/09 08:27:14;;;;;;;33.77;22.90;;;18.50;99.90;;;;;;5130266;27;20186;-68
2023/05/09 08:29:40;;;;;;;29.30;21.50;;;18.80;99.90;;;;;;5129865;27;20184;-68
2023/05/09 08:32:06;;;;;;;30.47;22.50;;;19.00;99.90;;;;;;5111619;27;20796;-64
2023/05/09 08:34:33;;;;;;;37.20;24.60;;;18.90;99.90;;;;;;5129535;27;20192;-64
2023/05/09 08:37:02;;;;;;;33.87;21.77;;;18.80;99.90;;;;;;5129661;27;20949;-64
2023/05/09 08:39:33;;;;;;;28.70;20.77;;;18.70;99.90;;;;;;5130096;27;20526;-63
2023/05/09 08:42:00;;;;;;;31.60;22.73;;;18.80;99.90;;;;;;5130095;27;20475;-65
2023/05/09 08:44:28;;;;;;;32.50;22.63;;;19.00;99.90;;;;;;5130098;27;20587;-65
2023/05/09 08:47:01;;;;;;;34.83;23.17;;;19.30;99.90;;;;;;5130319;27;20442;-64
2023/05/09 08:49:27;;;;;;;42.73;23.77;;;19.40;99.90;;;;;;5130583;27;20503;-65
2023/05/09 08:51:54;;;;;;;33.33;24.17;;;19.40;99.90;;;;;;5130317;27;20783;-65
2023/05/09 08:54:21;;;;;;;32.47;23.67;;;19.60;99.90;;;;;;5130283;27;20436;-64
2023/05/09 08:56:47;;;;;;;27.37;21.20;;;19.70;99.90;;;;;;5130035;27;20444;-65
2023/05/09 08:59:12;;;;;;;30.47;21.43;;;19.80;99.90;;;;;;5130126;27;20430;-64
2023/05/09 09:01:39;;;;;;;31.70;21.30;;;20.10;99.90;;;;;;5130134;27;20188;-64
2023/05/09 09:04:06;;;;;;;34.40;19.40;;;20.10;99.90;;;;;;5129979;27;20216;-65
2023/05/09 09:06:35;;;;;;;27.90;19.80;;;19.90;99.90;;;;;;5129950;27;20441;-65
2023/05/09 09:09:04;;;;;;;26.47;19.87;;;20.00;99.90;;;;;;5129519;27;20461;-64
2023/05/09 09:11:32;;;;;;;23.00;17.50;;;20.40;99.90;;;;;;5129426;27;20428;-65
2023/05/09 09:14:05;;;;;;;26.90;20.10;;;20.70;99.90;;;;;;5129350;27;20525;-65
2023/05/09 09:16:31;;;;;;;19.97;16.50;;;20.70;99.90;;;;;;5128747;27;20441;-64
2023/05/09 09:18:59;;;;;;;24.07;16.73;;;20.80;99.90;;;;;;5128835;27;20516;-64
2023/05/09 09:21:25;;;;;;;29.27;17.63;;;20.70;99.90;;;;;;5128696;27;20436;-64
2023/05/09 09:23:52;;;;;;;22.37;17.00;;;20.60;99.90;;;;;;5128573;27;20462;-64
2023/05/09 09:26:18;;;;;;;20.00;15.50;;;20.60;99.90;;;;;;5109982;27;20442;-64
2023/05/09 09:28:44;;;;;;;21.13;14.37;;;19.80;99.90;;;;;;5128660;27;20422;-64
2023/05/09 09:31:29;;;;;;;16.63;12.20;;;19.80;99.90;;;;;;5128425;27;20272;-64
2023/05/09 09:34:01;;;;;;;16.03;12.37;;;20.00;99.90;;;;;;5128671;27;20663;-64
2023/05/09 09:36:28;;;;;;;15.70;12.83;;;20.60;99.90;;;;;;5128510;27;20484;-64
2023/05/09 09:39:03;;;;;;;16.23;11.70;;;21.00;99.90;;;;;;5128546;27;20415;-64
2023/05/09 09:41:36;;;;;;;12.40;11.10;;;21.60;99.90;;;;;;5109873;27;20828;-64
2023/05/09 09:44:12;;;;;;;12.60;9.90;;;22.00;99.90;;;;;;5128158;27;21015;-64
2023/05/09 09:46:45;;;;;;;13.10;10.63;;;22.20;99.90;;;;;;5128172;27;20953;-63
2023/05/09 09:49:15;;;;;;;12.43;10.33;;;22.10;99.90;;;;;;5129006;27;20418;-63
2023/05/09 09:51:41;;;;;;;13.07;10.63;;;21.50;99.90;;;;;;5128672;27;20444;-63
2023/05/09 09:54:08;;;;;;;11.20;7.77;;;21.70;99.90;;;;;;5128696;27;20430;-64
2023/05/09 09:56:50;;;;;;;10.43;6.83;;;22.00;99.90;;;;;;5128781;27;20468;-63
2023/05/09 09:59:18;;;;;;;11.10;8.37;;;22.50;99.90;;;;;;5110227;28;20961;-64
2023/05/09 10:02:03;;;;;;;12.37;9.60;;;22.50;99.90;;;;;;5128591;28;20434;-64
2023/05/09 10:04:33;;;;;;;8.77;7.90;;;22.80;99.90;;;;;;5128312;27;20525;-66
2023/05/09 10:07:04;;;;;;;9.23;7.67;;;22.40;99.90;;;;;;5128603;27;20441;-64
2023/05/09 10:09:31;;;;;;;10.37;8.33;;;22.50;99.90;;;;;;5128571;28;20441;-65
2023/05/09 10:12:02;;;;;;;12.87;7.30;;;22.00;99.90;;;;;;5127900;28;20867;-65
2023/05/09 10:14:30;;;;;;;11.57;6.90;;;21.80;99.90;;;;;;5128145;28;20472;-64
2023/05/09 10:16:57;;;;;;;9.93;6.57;;;21.20;99.90;;;;;;5127812;27;20480;-64
2023/05/09 10:19:25;;;;;;;10.97;7.60;;;21.50;99.90;;;;;;5127891;28;20419;-64
2023/05/09 10:21:57;;;;;;;6.77;6.07;;;21.90;99.90;;;;;;5128059;28;20434;-64
2023/05/09 10:24:40;;;;;;;8.70;7.40;;;22.00;99.90;;;;;;5128205;28;21093;-66
2023/05/09 10:27:10;;;;;;;8.43;5.80;;;21.60;99.90;;;;;;5128159;27;20435;-64
2023/05/09 10:30:01;;;;;;;6.20;5.60;;;21.80;99.90;;;;;;5128087;28;20763;-65
2023/05/09 10:32:36;;;;;;;7.13;6.10;;;21.60;99.90;;;;;;5109687;28;20508;-64
2023/05/09 10:35:05;;;;;;;8.80;6.33;;;21.70;99.90;;;;;;5128333;27;20414;-65
2023/05/09 10:37:31;;;;;;;11.20;5.90;;;22.00;99.90;;;;;;5128450;28;20473;-64
2023/05/09 10:39:58;;;;;;;13.33;6.43;;;22.00;99.90;;;;;;5127575;27;20928;-64
2023/05/09 10:42:24;;;;;;;9.20;6.37;;;21.80;99.90;;;;;;5127424;28;20652;-64
2023/05/09 10:44:52;;;;;;;7.77;6.30;;;21.90;99.90;;;;;;5127436;27;20804;-65
2023/05/09 10:47:19;;;;;;;7.13;4.93;;;22.20;99.90;;;;;;5128023;28;20488;-64
2023/05/09 10:49:44;;;;;;;14.87;5.20;;;22.40;99.90;;;;;;5127972;28;20418;-65
2023/05/09 10:52:11;;;;;;;12.33;4.97;;;22.40;99.90;;;;;;5127496;28;21280;-65
2023/05/09 10:54:37;;;;;;;5.63;4.30;;;22.50;99.90;;;;;;5127396;28;21054;-65
2023/05/09 10:57:05;;;;;;;5.00;4.50;;;22.40;99.90;;;;;;5128685;27;20519;-64
2023/05/09 10:59:41;;;;;;;4.97;4.07;;;22.70;99.90;;;;;;5131330;27;20474;-64
2023/05/09 11:02:13;;;;;;;5.50;3.70;;;22.60;99.90;;;;;;5131322;27;20428;-65
2023/05/09 11:04:39;;;;;;;7.23;4.10;;;22.80;99.90;;;;;;5131250;27;20466;-64
2023/05/09 11:07:22;;;;;;;6.37;3.20;;;22.30;99.90;;;;;;5130904;27;20954;-64
2023/05/09 11:10:05;;;;;;;5.60;3.43;;;22.70;99.90;;;;;;5112508;27;20952;-65
2023/05/09 11:12:31;;;;;;;3.63;2.80;;;22.90;99.90;;;;;;5131074;27;20483;-64
2023/05/09 11:15:05;;;;;;;3.53;3.23;;;22.90;99.90;;;;;;5131320;27;20422;-66
2023/05/09 11:17:31;;;;;;;4.00;3.00;;;23.00;99.10;;;;;;5130981;27;20426;-64
2023/05/09 11:20:07;;;;;;;5.80;3.53;;;22.90;99.30;;;;;;5130803;27;20422;-65
2023/05/09 11:22:43;;;;;;;4.40;2.90;;;23.30;99.90;;;;;;5130929;27;21241;-64
2023/05/09 11:25:11;;;;;;;3.53;3.17;;;23.10;99.90;;;;;;5130852;27;20484;-65
2023/05/09 11:27:41;;;;;;;2.83;2.63;;;22.60;98.60;;;;;;5112194;27;20439;-65
2023/05/09 11:30:08;;;;;;;2.70;2.50;;;23.40;99.90;;;;;;5130949;27;20423;-65
2023/05/09 11:32:42;;;;;;;2.90;2.70;;;23.90;98.90;;;;;;5131009;27;20429;-65
2023/05/09 11:35:11;;;;;;;3.17;2.87;;;24.10;96.60;;;;;;5130993;27;20435;-65
2023/05/09 11:38:04;;;;;;;3.17;2.77;;;24.30;97.00;;;;;;5130968;27;20986;-64
2023/05/09 11:40:31;;;;;;;3.33;3.13;;;24.00;94.50;;;;;;5126592;27;20432;-64
2023/05/09 11:42:58;;;;;;;4.60;2.67;;;24.30;95.50;;;;;;5130660;27;20541;-64
2023/05/09 11:45:28;;;;;;;2.80;2.60;;;24.60;99.20;;;;;;5130541;27;20444;-66
2023/05/09 11:47:55;;;;;;;8.47;3.70;;;24.80;95.70;;;;;;5130797;27;20418;-65
2023/05/09 11:50:21;;;;;;;5.10;3.10;;;24.70;94.00;;;;;;5130292;27;20417;-65
2023/05/09 11:52:48;;;;;;;3.70;2.60;;;24.90;95.90;;;;;;5130534;27;20428;-65
2023/05/09 11:55:16;;;;;;;4.10;3.23;;;24.60;94.30;;;;;;5130197;27;20575;-65
2023/05/09 11:57:50;;;;;;;3.40;3.00;;;24.70;92.60;;;;;;5130093;27;20924;-65
2023/05/09 12:00:23;;;;;;;2.57;2.37;;;24.40;93.30;;;;;;5130171;27;20921;-65
2023/05/09 12:02:50;;;;;;;3.07;2.77;;;24.20;92.20;;;;;;5130049;27;20424;-66
2023/05/09 12:05:17;;;;;;;3.03;2.60;;;23.40;92.80;;;;;;5111105;27;20466;-65
2023/05/09 12:07:44;;;;;;;7.37;2.40;;;23.20;94.80;;;;;;5132728;27;20997;-64
2023/05/09 12:10:14;;;;;;;3.23;2.93;;;23.20;94.90;;;;;;5131196;27;20978;-64
2023/05/09 12:12:48;;;;;;;3.10;2.40;;;23.70;96.90;;;;;;5129915;27;20428;-65
2023/05/09 12:15:15;;;;;;;4.00;2.93;;;24.10;97.20;;;;;;5129699;27;20457;-64
2023/05/09 12:17:42;;;;;;;2.80;2.60;;;24.50;96.50;;;;;;5129554;27;20421;-64
2023/05/09 12:20:08;;;;;;;10.03;2.50;;;24.80;92.50;;;;;;5129728;27;20470;-66
2023/05/09 12:22:36;;;;;;;4.63;2.60;;;24.80;91.20;;;;;;5129457;27;20794;-65
2023/05/09 12:25:06;;;;;;;2.30;2.13;;;24.80;90.70;;;;;;5129427;27;20465;-65
2023/05/09 12:27:33;;;;;;;8.37;2.20;;;24.80;92.10;;;;;;5129630;27;20397;-67
2023/05/09 12:30:00;;;;;;;5.90;3.13;;;24.50;91.20;;;;;;5129472;27;20434;-65
2023/05/09 12:32:30;;;;;;;2.40;2.20;;;23.90;91.60;;;;;;5110736;27;20425;-64